createdAt,value
2019-03-10T00:05:32.297Z,11.90
2019-03-10T00:11:34.616Z,11.80
2019-03-10T00:17:36.915Z,11.80
2019-03-10T00:23:39.065Z,11.70
2019-03-10T00:29:41.284Z,11.80
2019-03-10T00:35:43.498Z,11.90
2019-03-10T00:42:27.419Z,11.90
2019-03-10T00:49:10.189Z,11.90
2019-03-10T00:55:12.414Z,11.80
2019-03-10T01:01:14.647Z,11.80
2019-03-10T01:07:20.016Z,11.80
2019-03-10T01:13:22.311Z,11.70
2019-03-10T01:19:25.378Z,11.70
2019-03-10T01:25:27.672Z,11.60
2019-03-10T01:32:01.938Z,11.60
2019-03-10T01:38:04.311Z,11.60
2019-03-10T01:44:06.599Z,11.60
2019-03-10T01:50:11.110Z,11.60
2019-03-10T01:56:13.373Z,11.60
2019-03-10T02:02:24.840Z,11.60
2019-03-10T02:08:21.279Z,11.60
2019-03-10T02:14:23.463Z,11.50
2019-03-10T02:20:25.696Z,11.50
2019-03-10T02:26:28.492Z,11.50
2019-03-10T02:32:30.770Z,11.40
2019-03-10T02:38:33.017Z,11.30
2019-03-10T02:44:35.242Z,11.10
2019-03-10T02:50:37.436Z,11.00
2019-03-10T02:56:39.842Z,11.00
2019-03-10T03:02:42.194Z,10.90
2019-03-10T03:08:46.603Z,10.80
2019-03-10T03:14:49.022Z,10.70
2019-03-10T03:20:51.331Z,10.60
2019-03-10T03:26:54.750Z,10.60
2019-03-10T03:32:56.984Z,10.70
2019-03-10T03:39:18.126Z,10.70
2019-03-10T03:45:20.523Z,10.80
2019-03-10T03:51:22.712Z,10.80
2019-03-10T03:57:24.988Z,10.90
2019-03-10T04:03:27.276Z,10.80
2019-03-10T04:09:29.817Z,10.60
2019-03-10T04:15:32.215Z,10.60
2019-03-10T04:21:34.498Z,10.50
2019-03-10T04:27:36.837Z,10.50
2019-03-10T04:33:39.035Z,10.50
2019-03-10T04:39:41.204Z,10.50
2019-03-10T04:45:43.421Z,10.40
2019-03-10T04:51:45.596Z,10.20
2019-03-10T04:58:06.216Z,10.00
2019-03-10T05:04:08.643Z,9.90
2019-03-10T05:10:11.274Z,9.70
2019-03-10T05:16:13.598Z,9.50
2019-03-10T05:22:15.886Z,9.50
2019-03-10T05:28:18.168Z,9.50
2019-03-10T05:34:20.422Z,9.50
2019-03-10T05:40:22.827Z,9.50
2019-03-10T05:46:25.127Z,9.50
2019-03-10T05:52:27.419Z,9.50
2019-03-10T05:58:29.649Z,9.30
2019-03-10T06:04:31.796Z,9.20
2019-03-10T06:10:34.175Z,9.20
2019-03-10T06:16:37.613Z,9.10
2019-03-10T06:22:39.938Z,9.10
2019-03-10T06:28:43.289Z,9.40
2019-03-10T06:34:46.635Z,9.60
2019-03-10T06:40:48.889Z,9.80
2019-03-10T06:46:51.078Z,10.00
2019-03-10T06:52:53.276Z,10.10
2019-03-10T06:58:55.458Z,10.10
2019-03-10T07:04:57.677Z,10.10
2019-03-10T07:11:00.032Z,10.20
2019-03-10T07:17:03.586Z,10.40
2019-03-10T07:23:07.739Z,10.50
2019-03-10T07:29:11.915Z,10.50
2019-03-10T07:35:31.460Z,10.60
2019-03-10T07:41:44.772Z,10.60
2019-03-10T07:47:48.876Z,10.40
2019-03-10T07:54:08.162Z,10.20
2019-03-10T08:00:18.570Z,10.30
2019-03-10T08:06:26.580Z,10.30
2019-03-10T08:12:34.687Z,10.20
2019-03-10T08:18:47.257Z,10.10
2019-03-10T08:25:00.482Z,10.20
2019-03-10T08:31:21.472Z,10.20
2019-03-10T08:37:28.541Z,10.10
2019-03-10T08:43:42.654Z,10.00
2019-03-10T08:49:52.667Z,10.00
2019-03-10T08:55:57.643Z,10.10
2019-03-10T09:02:01.889Z,10.00
2019-03-10T09:08:24.856Z,10.00
2019-03-10T09:14:29.057Z,9.90
2019-03-10T09:20:39.180Z,9.90
2019-03-10T09:26:43.422Z,9.80
2019-03-10T09:32:50.901Z,9.80
2019-03-10T09:38:55.242Z,9.60
2019-03-10T09:44:59.594Z,9.50
2019-03-10T09:51:06.857Z,9.50
2019-03-10T09:57:17.272Z,9.40
2019-03-10T10:03:37.929Z,9.40
2019-03-10T10:09:42.268Z,9.40
2019-03-10T10:15:52.352Z,9.40
2019-03-10T10:22:15.309Z,9.10
2019-03-10T10:28:22.303Z,9.10
2019-03-10T10:34:39.471Z,9.10
2019-03-10T10:40:44.917Z,9.10
2019-03-10T10:46:51.924Z,9.40
2019-03-10T10:53:08.342Z,9.30
2019-03-10T10:59:16.407Z,9.30
2019-03-10T11:05:23.163Z,9.20
2019-03-10T11:11:33.563Z,9.20
2019-03-10T11:17:50.121Z,9.20
2019-03-10T11:24:13.592Z,9.20
2019-03-10T11:30:17.697Z,9.50
2019-03-10T11:36:21.936Z,9.30
2019-03-10T11:42:35.036Z,9.60
2019-03-10T11:48:55.947Z,9.50
2019-03-10T11:55:00.032Z,9.40
2019-03-10T12:01:10.240Z,9.30
2019-03-10T12:07:14.458Z,9.20
2019-03-10T12:13:16.885Z,9.40
2019-03-10T12:19:20.205Z,9.40
2019-03-10T12:25:22.760Z,9.50
2019-03-10T12:31:25.029Z,9.60
2019-03-10T12:37:27.313Z,9.70
2019-03-10T12:43:29.563Z,9.70
2019-03-10T12:49:31.809Z,9.80
2019-03-10T12:55:34.092Z,9.80
2019-03-10T13:01:37.303Z,9.90
2019-03-10T13:07:39.849Z,10.00
2019-03-10T13:13:42.063Z,10.00
2019-03-10T13:19:44.292Z,10.10
2019-03-10T13:25:46.668Z,10.10
2019-03-10T13:31:48.970Z,10.30
2019-03-10T13:37:51.232Z,10.40
2019-03-10T13:43:54.780Z,10.60
2019-03-10T13:49:57.040Z,11.00
2019-03-10T13:55:59.197Z,11.50
2019-03-10T14:02:03.766Z,11.90
2019-03-10T14:08:07.068Z,12.30
2019-03-10T14:14:09.623Z,12.80
2019-03-10T14:20:11.971Z,13.00
2019-03-10T14:26:14.215Z,13.20
2019-03-10T14:32:16.767Z,13.50
2019-03-10T14:38:18.856Z,13.80
2019-03-10T14:44:21.176Z,13.90
2019-03-10T14:50:23.441Z,13.80
2019-03-10T14:56:25.651Z,13.70
2019-03-10T15:02:27.864Z,13.80
2019-03-10T15:08:30.039Z,13.90
2019-03-10T15:14:32.396Z,13.90
2019-03-10T15:20:34.688Z,14.00
2019-03-10T15:26:45.658Z,14.00
2019-03-10T15:32:42.333Z,14.20
2019-03-10T15:38:44.691Z,14.40
2019-03-10T15:44:47.087Z,14.40
2019-03-10T15:50:49.418Z,14.40
2019-03-10T15:56:51.649Z,14.30
2019-03-10T16:02:53.959Z,14.40
2019-03-10T16:08:56.119Z,14.40
2019-03-10T16:14:58.395Z,14.40
2019-03-10T16:21:00.787Z,14.50
2019-03-10T16:27:03.139Z,14.50
2019-03-10T16:33:05.500Z,14.50
2019-03-10T16:39:08.267Z,14.40
2019-03-10T16:45:13.219Z,14.10
2019-03-10T16:51:15.442Z,14.00
2019-03-10T16:57:17.696Z,13.80
2019-03-10T17:03:19.917Z,13.70
2019-03-10T17:09:22.100Z,13.70
2019-03-10T17:15:26.162Z,13.40
2019-03-10T17:21:28.443Z,13.10
2019-03-10T17:27:30.839Z,13.00
2019-03-10T17:33:33.312Z,12.90
2019-03-10T17:39:35.619Z,12.80
2019-03-10T17:45:37.995Z,12.80
2019-03-10T17:51:40.198Z,12.70
2019-03-10T17:57:42.393Z,12.60
2019-03-10T18:03:44.655Z,12.60
2019-03-10T18:09:46.802Z,12.60
2019-03-10T18:15:49.100Z,12.50
2019-03-10T18:21:51.360Z,12.40
2019-03-10T18:27:53.539Z,12.40
2019-03-10T18:33:55.901Z,12.30
2019-03-10T18:39:58.162Z,12.30
2019-03-10T18:50:24.163Z,12.20
2019-03-10T18:56:26.804Z,12.20
2019-03-10T19:02:29.239Z,12.40
2019-03-10T19:35:34.119Z,11.70
2019-03-10T19:41:36.480Z,11.60
2019-03-10T19:47:38.862Z,11.80
2019-03-10T19:53:41.139Z,12.00
2019-03-10T19:59:43.423Z,12.10
2019-03-10T20:21:50.315Z,12.00
2019-03-10T20:27:52.609Z,12.00
2019-03-10T20:33:55.170Z,11.80
2019-03-10T20:39:59.047Z,11.70
2019-03-10T20:46:01.286Z,11.70
2019-03-10T20:52:03.775Z,11.70
2019-03-10T20:58:06.052Z,11.70
2019-03-10T21:04:09.012Z,11.50
2019-03-10T21:10:12.569Z,11.40
2019-03-10T21:16:14.812Z,11.30
2019-03-10T21:22:17.427Z,11.30
2019-03-10T21:28:21.175Z,11.10
2019-03-10T21:34:23.367Z,11.00
2019-03-10T21:40:27.800Z,10.90
2019-03-10T21:46:30.254Z,10.90
2019-03-10T21:52:32.568Z,11.00
2019-03-10T21:58:34.801Z,11.00
2019-03-10T22:04:37.048Z,10.90
2019-03-10T22:10:39.367Z,10.90
2019-03-10T22:16:41.495Z,11.00
2019-03-10T22:22:49.154Z,11.00
2019-03-10T22:28:47.869Z,10.70
2019-03-10T22:34:50.198Z,10.20
2019-03-10T22:40:52.670Z,9.80
2019-03-10T22:46:54.898Z,9.60
2019-03-10T22:52:57.178Z,9.50
2019-03-10T22:58:59.478Z,9.50
2019-03-10T23:05:01.771Z,9.20
2019-03-10T23:11:03.939Z,8.90
2019-03-10T23:17:06.102Z,8.50
2019-03-10T23:23:08.332Z,8.30
2019-03-10T23:29:10.471Z,8.10
2019-03-10T23:35:13.297Z,7.90
2019-03-10T23:41:15.428Z,7.80
2019-03-10T23:47:17.952Z,7.80
2019-03-10T23:53:20.227Z,7.80
2019-03-10T23:59:22.533Z,7.70
